Time;durP1;ratioP1;P1;durP2;ratioP2;P2;SDS_P1;SDS_P2;PMS_P1;PMS_P2;Temp;Humidity;BMP_temperature;BMP_pressure;BME280_temperature;BME280_humidity;BME280_pressure;Samples;Min_cycle;Max_cycle;Signal;HPM_P1;HPM_P2
2021/04/11 00:00:47;;;;;;;19.00;17.07;;;;;;;;;;5061922;28;20250;-44
2021/04/11 00:03:17;;;;;;;19.10;17.27;;;;;;;;;;5056017;28;20182;-42
2021/04/11 00:05:42;;;;;;;18.30;16.60;;;;;;;;;;5061509;28;20267;-44
2021/04/11 00:08:09;;;;;;;17.07;15.57;;;;;;;;;;5051354;28;20740;-43
2021/04/11 00:10:36;;;;;;;17.80;16.20;;;;;;;;;;5054705;28;20178;-43
2021/04/11 00:13:03;;;;;;;17.70;15.80;;;;;;;;;;5057316;28;20649;-43
2021/04/11 00:15:29;;;;;;;17.37;15.77;;;;;;;;;;5056966;28;20596;-43
2021/04/11 00:17:54;;;;;;;19.00;17.17;;;;;;;;;;5053080;28;20694;-44
2021/04/11 00:20:19;;;;;;;18.77;16.80;;;;;;;;;;5060082;28;20183;-43
2021/04/11 00:22:45;;;;;;;17.27;15.67;;;;;;;;;;5061053;28;20174;-50
2021/04/11 00:25:12;;;;;;;16.63;15.10;;;;;;;;;;5052214;28;20723;-43
2021/04/11 00:27:37;;;;;;;17.27;15.33;;;;;;;;;;5049931;28;20195;-42
2021/04/11 00:30:06;;;;;;;16.50;15.00;;;;;;;;;;5056437;28;21145;-43
2021/04/11 00:32:31;;;;;;;16.53;14.83;;;;;;;;;;5061723;28;20182;-43
2021/04/11 00:34:56;;;;;;;17.10;15.30;;;;;;;;;;5054039;28;20589;-44
2021/04/11 00:37:21;;;;;;;16.30;14.75;;;;;;;;;;5057652;28;20653;-43
2021/04/11 00:39:46;;;;;;;16.50;14.83;;;;;;;;;;5068491;28;20190;-44
2021/04/11 00:42:32;;;;;;;15.70;14.20;;;;;;;;;;5068409;28;20732;-44
2021/04/11 00:45:13;;;;;;;15.47;13.97;;;;;;;;;;5069609;28;20667;-44
2021/04/11 00:47:39;;;;;;;15.80;14.30;;;;;;;;;;5049960;28;20630;-44
2021/04/11 00:50:06;;;;;;;15.87;14.37;;;;;;;;;;5059569;28;20594;-43
2021/04/11 00:52:32;;;;;;;15.97;14.27;;;;;;;;;;5050912;28;21024;-44
2021/04/11 00:54:57;;;;;;;16.10;14.70;;;;;;;;;;5061655;28;20624;-44
2021/04/11 00:57:22;;;;;;;15.50;13.90;;;;;;;;;;5067834;28;20249;-43
2021/04/11 00:59:47;;;;;;;15.57;14.07;;;;;;;;;;5053066;28;20533;-43
2021/04/11 01:02:13;;;;;;;14.90;13.47;;;;;;;;;;5064810;28;20186;-43
2021/04/11 01:04:38;;;;;;;14.63;13.37;;;;;;;;;;5049848;28;20527;-44
2021/04/11 01:07:06;;;;;;;14.60;13.23;;;;;;;;;;5058881;28;20230;-44
2021/04/11 01:09:34;;;;;;;15.87;14.17;;;;;;;;;;5056577;28;20178;-43
2021/04/11 01:12:00;;;;;;;14.47;13.20;;;;;;;;;;5064291;28;20582;-41
2021/04/11 01:14:27;;;;;;;14.57;13.20;;;;;;;;;;5061316;28;20605;-44
2021/04/11 01:16:52;;;;;;;14.90;13.30;;;;;;;;;;5050306;28;20689;-42
2021/04/11 01:19:25;;;;;;;15.48;14.07;;;;;;;;;;5061221;28;21179;-42
2021/04/11 01:21:50;;;;;;;14.10;12.70;;;;;;;;;;5058938;28;20266;-42
2021/04/11 01:24:18;;;;;;;14.48;12.77;;;;;;;;;;5062670;28;20640;-42
2021/04/11 01:26:46;;;;;;;15.30;13.83;;;;;;;;;;5053499;28;20637;-44
2021/04/11 01:29:12;;;;;;;15.30;13.87;;;;;;;;;;5050650;28;20603;-42
2021/04/11 01:31:37;;;;;;;14.90;13.50;;;;;;;;;;5066047;28;21014;-42
2021/04/11 01:34:04;;;;;;;15.00;13.50;;;;;;;;;;5067586;28;20700;-43
2021/04/11 01:36:31;;;;;;;14.13;12.93;;;;;;;;;;5057951;28;20549;-42
2021/04/11 01:38:59;;;;;;;13.00;11.90;;;;;;;;;;5050269;28;20705;-42
2021/04/11 01:41:24;;;;;;;12.90;11.60;;;;;;;;;;5064875;28;20660;-43
2021/04/11 01:43:50;;;;;;;16.35;13.05;;;;;;;;;;5062994;28;20792;-43
2021/04/11 01:46:16;;;;;;;14.13;12.83;;;;;;;;;;5063254;28;20178;-43
2021/04/11 01:48:41;;;;;;;14.37;12.97;;;;;;;;;;5055803;28;20651;-43
2021/04/11 01:51:09;;;;;;;15.50;14.03;;;;;;;;;;5053078;28;20224;-43
2021/04/11 01:53:35;;;;;;;13.70;12.37;;;;;;;;;;5066822;28;20182;-43
2021/04/11 01:56:00;;;;;;;12.80;11.70;;;;;;;;;;5058123;28;20598;-43
2021/04/11 01:58:26;;;;;;;13.97;12.70;;;;;;;;;;5056208;28;20644;-43
2021/04/11 02:01:03;;;;;;;14.20;12.90;;;;;;;;;;5056630;28;20282;-43
2021/04/11 02:03:28;;;;;;;14.73;13.30;;;;;;;;;;5048616;28;20698;-43
2021/04/11 02:05:53;;;;;;;15.03;13.53;;;;;;;;;;5049590;28;20720;-43
2021/04/11 02:08:21;;;;;;;12.87;11.70;;;;;;;;;;5058430;28;20313;-43
2021/04/11 02:10:49;;;;;;;13.90;12.40;;;;;;;;;;5061752;28;21015;-43
2021/04/11 02:13:14;;;;;;;12.77;11.63;;;;;;;;;;5059577;28;21168;-43
2021/04/11 02:15:42;;;;;;;13.47;12.17;;;;;;;;;;5063268;28;20607;-43
2021/04/11 02:18:09;;;;;;;14.33;13.03;;;;;;;;;;5051005;28;20173;-43
2021/04/11 02:20:35;;;;;;;14.07;12.87;;;;;;;;;;5055058;28;20595;-43
2021/04/11 02:23:00;;;;;;;13.60;12.40;;;;;;;;;;5054142;28;20687;-43
2021/04/11 02:25:27;;;;;;;13.87;12.47;;;;;;;;;;5057782;28;20653;-43
2021/04/11 02:27:53;;;;;;;14.67;12.50;;;;;;;;;;5048227;28;20214;-43
2021/04/11 02:30:19;;;;;;;14.00;12.90;;;;;;;;;;5059628;28;21036;-43
2021/04/11 02:32:45;;;;;;;14.07;12.53;;;;;;;;;;5051641;28;20684;-42
2021/04/11 02:35:16;;;;;;;15.17;11.70;;;;;;;;;;5052955;28;20693;-42
2021/04/11 02:37:42;;;;;;;14.50;13.20;;;;;;;;;;5053068;28;20183;-42
2021/04/11 02:40:15;;;;;;;13.07;11.97;;;;;;;;;;5058605;28;20598;-42
2021/04/11 02:42:40;;;;;;;14.23;12.93;;;;;;;;;;5063577;28;20610;-42
2021/04/11 02:45:09;;;;;;;14.63;12.33;;;;;;;;;;5066514;28;20688;-43
2021/04/11 02:47:34;;;;;;;12.80;11.60;;;;;;;;;;5064696;28;20616;-43
2021/04/11 02:49:59;;;;;;;13.53;12.13;;;;;;;;;;5069372;28;20675;-42
2021/04/11 02:52:28;;;;;;;12.90;11.60;;;;;;;;;;5065177;28;20181;-43
2021/04/11 02:54:54;;;;;;;13.50;12.13;;;;;;;;;;5061011;28;20743;-42
2021/04/11 02:57:19;;;;;;;13.43;12.10;;;;;;;;;;5056330;28;20963;-43
2021/04/11 02:59:45;;;;;;;14.57;12.40;;;;;;;;;;5066429;28;20601;-43
2021/04/11 03:02:11;;;;;;;12.27;11.17;;;;;;;;;;5052941;28;20225;-43
2021/04/11 03:04:36;;;;;;;14.80;12.70;;;;;;;;;;5055598;28;20611;-43
2021/04/11 03:07:05;;;;;;;13.50;12.03;;;;;;;;;;5065450;28;20656;-43
2021/04/11 03:09:45;;;;;;;13.13;12.00;;;;;;;;;;5052128;28;20194;-43
2021/04/11 03:12:11;;;;;;;13.87;12.30;;;;;;;;;;5056921;28;21086;-43
2021/04/11 03:14:38;;;;;;;13.50;12.30;;;;;;;;;;5051538;28;20597;-43
2021/04/11 03:17:07;;;;;;;14.93;12.80;;;;;;;;;;5064315;28;20413;-43
2021/04/11 03:19:35;;;;;;;13.73;12.43;;;;;;;;;;5051604;28;20602;-43
2021/04/11 03:22:01;;;;;;;13.80;12.50;;;;;;;;;;5052606;28;20605;-43
2021/04/11 03:24:26;;;;;;;13.83;12.63;;;;;;;;;;5062395;28;20614;-43
2021/04/11 03:26:59;;;;;;;12.60;11.50;;;;;;;;;;5056904;28;20217;-43
2021/04/11 03:29:31;;;;;;;12.53;11.37;;;;;;;;;;5060638;28;20256;-43
2021/04/11 03:32:08;;;;;;;13.60;12.30;;;;;;;;;;5067899;28;20940;-43
2021/04/11 03:34:33;;;;;;;12.93;11.77;;;;;;;;;;5054665;28;20755;-43
2021/04/11 03:37:01;;;;;;;13.70;12.40;;;;;;;;;;5056824;28;20597;-43
2021/04/11 03:39:28;;;;;;;13.50;12.30;;;;;;;;;;5050440;28;20179;-43
2021/04/11 03:41:53;;;;;;;13.20;12.00;;;;;;;;;;5061165;28;20622;-43
2021/04/11 03:44:20;;;;;;;15.37;12.57;;;;;;;;;;5060849;28;20593;-43
2021/04/11 03:46:45;;;;;;;12.83;11.67;;;;;;;;;;5056437;28;20187;-43
2021/04/11 03:49:28;;;;;;;13.55;12.30;;;;;;;;;;5058893;28;20591;-42
2021/04/11 03:51:54;;;;;;;13.60;12.20;;;;;;;;;;5063504;28;20175;-42
2021/04/11 03:54:24;;;;;;;14.10;12.77;;;;;;;;;;5050890;28;20619;-42
2021/04/11 03:57:07;;;;;;;13.40;12.07;;;;;;;;;;5056144;28;21192;-43
2021/04/11 03:59:39;;;;;;;13.17;11.97;;;;;;;;;;5060183;28;20594;-42
2021/04/11 04:02:05;;;;;;;11.93;10.93;;;;;;;;;;5064319;28;21168;-43
2021/04/11 04:04:31;;;;;;;14.07;12.47;;;;;;;;;;5057584;28;20766;-46
2021/04/11 04:07:10;;;;;;;13.17;11.97;;;;;;;;;;5054690;28;21221;-43
2021/04/11 04:09:39;;;;;;;12.53;11.50;;;;;;;;;;5058447;28;20669;-43
2021/04/11 04:12:12;;;;;;;13.30;12.03;;;;;;;;;;5050601;28;20639;-43
2021/04/11 04:14:56;;;;;;;12.77;11.57;;;;;;;;;;5054667;28;20688;-43
2021/04/11 04:17:44;;;;;;;13.07;11.80;;;;;;;;;;5053301;28;21008;-42
2021/04/11 04:20:09;;;;;;;12.90;11.63;;;;;;;;;;5055484;28;20650;-43
2021/04/11 04:22:53;;;;;;;13.20;11.90;;;;;;;;;;5068441;28;20600;-42
2021/04/11 04:25:27;;;;;;;13.67;12.27;;;;;;;;;;5055100;28;20658;-43
2021/04/11 04:27:55;;;;;;;12.77;11.67;;;;;;;;;;5056246;28;20652;-43
2021/04/11 04:30:24;;;;;;;13.73;12.50;;;;;;;;;;5053834;28;21202;-43
2021/04/11 04:32:52;;;;;;;13.23;11.93;;;;;;;;;;5057128;28;20608;-44
2021/04/11 04:35:23;;;;;;;12.57;11.37;;;;;;;;;;5059191;28;21235;-43
2021/04/11 04:37:48;;;;;;;12.30;11.10;;;;;;;;;;5065932;28;21185;-43
2021/04/11 04:40:34;;;;;;;12.20;11.10;;;;;;;;;;5053793;28;20635;-43
2021/04/11 04:43:00;;;;;;;12.83;11.63;;;;;;;;;;5059012;28;20189;-43
2021/04/11 04:45:35;;;;;;;13.90;11.40;;;;;;;;;;5065115;28;20601;-44
2021/04/11 04:48:01;;;;;;;12.13;10.93;;;;;;;;;;5049849;28;20645;-43
2021/04/11 04:50:44;;;;;;;11.93;10.82;;;;;;;;;;5052199;28;20615;-43
2021/04/11 04:53:14;;;;;;;13.20;11.30;;;;;;;;;;5064198;28;20194;-43
2021/04/11 04:55:44;;;;;;;12.10;11.10;;;;;;;;;;5055945;28;20601;-43
2021/04/11 04:58:11;;;;;;;10.93;9.83;;;;;;;;;;5055640;28;20682;-43
2021/04/11 05:00:39;;;;;;;13.43;10.50;;;;;;;;;;5056468;28;20608;-42
2021/04/11 05:03:13;;;;;;;11.37;10.33;;;;;;;;;;5061919;28;20623;-43
2021/04/11 05:05:46;;;;;;;11.77;10.60;;;;;;;;;;5057706;28;20605;-43
2021/04/11 05:08:17;;;;;;;12.00;10.87;;;;;;;;;;5058006;28;20686;-44
2021/04/11 05:10:46;;;;;;;11.90;10.80;;;;;;;;;;5049465;28;20597;-43
2021/04/11 05:13:22;;;;;;;10.50;9.70;;;;;;;;;;5057852;28;20589;-43
2021/04/11 05:15:59;;;;;;;15.13;11.23;;;;;;;;;;5054051;28;20597;-44
2021/04/11 05:18:26;;;;;;;10.43;9.43;;;;;;;;;;5051729;28;20684;-44
2021/04/11 05:21:00;;;;;;;11.10;9.53;;;;;;;;;;5062035;28;20597;-43
2021/04/11 05:23:36;;;;;;;11.30;10.23;;;;;;;;;;5048719;28;20609;-43
2021/04/11 05:26:08;;;;;;;10.67;9.77;;;;;;;;;;5053493;28;20668;-44
2021/04/11 05:28:38;;;;;;;10.80;9.80;;;;;;;;;;5054158;28;20667;-43
2021/04/11 05:31:05;;;;;;;10.03;9.13;;;;;;;;;;5057801;28;20602;-43
2021/04/11 05:33:33;;;;;;;9.93;8.93;;;;;;;;;;5049158;28;20594;-44
2021/04/11 05:36:07;;;;;;;10.13;9.30;;;;;;;;;;5048670;28;20589;-44
2021/04/11 05:38:44;;;;;;;10.03;9.00;;;;;;;;;;5054824;28;20602;-43
2021/04/11 05:41:14;;;;;;;10.43;9.50;;;;;;;;;;5051574;28;20638;-44
2021/04/11 05:43:46;;;;;;;10.90;9.70;;;;;;;;;;5052337;28;20627;-44
2021/04/11 05:46:18;;;;;;;9.57;8.63;;;;;;;;;;5051762;28;21171;-44
2021/04/11 05:48:49;;;;;;;9.23;8.33;;;;;;;;;;5050560;28;21026;-43
2021/04/11 05:51:20;;;;;;;9.60;8.70;;;;;;;;;;5049326;28;21205;-44
2021/04/11 05:53:48;;;;;;;9.67;8.70;;;;;;;;;;5048455;28;21163;-43
2021/04/11 05:56:19;;;;;;;8.27;7.57;;;;;;;;;;5048684;28;20602;-42
2021/04/11 05:58:47;;;;;;;9.27;8.37;;;;;;;;;;5055780;28;20604;-43
2021/04/11 06:01:18;;;;;;;8.80;8.00;;;;;;;;;;5051445;28;20600;-43
2021/04/11 06:04:03;;;;;;;8.50;7.70;;;;;;;;;;5056792;28;20602;-43
2021/04/11 06:06:31;;;;;;;8.13;7.33;;;;;;;;;;5050896;28;20637;-42
2021/04/11 06:09:15;;;;;;;7.93;7.20;;;;;;;;;;5056152;28;20612;-42
2021/04/11 06:11:46;;;;;;;8.83;7.90;;;;;;;;;;5045425;28;20604;-43
2021/04/11 06:14:17;;;;;;;8.13;7.43;;;;;;;;;;5050943;28;20606;-44
2021/04/11 06:16:42;;;;;;;7.90;7.10;;;;;;;;;;5050982;28;20800;-41
2021/04/11 06:19:08;;;;;;;8.50;7.20;;;;;;;;;;5051037;28;21208;-42
2021/04/11 06:21:38;;;;;;;7.47;6.70;;;;;;;;;;5054280;28;20900;-43
2021/04/11 06:24:03;;;;;;;7.67;6.97;;;;;;;;;;5049528;28;20180;-42
2021/04/11 06:26:35;;;;;;;7.90;7.10;;;;;;;;;;5055146;28;21134;-42
2021/04/11 06:29:22;;;;;;;8.00;7.20;;;;;;;;;;5050446;28;20183;-42
2021/04/11 06:31:52;;;;;;;7.80;7.20;;;;;;;;;;5048901;28;20602;-42
2021/04/11 06:34:22;;;;;;;7.70;7.00;;;;;;;;;;5051909;28;20613;-42
2021/04/11 06:36:50;;;;;;;7.60;6.80;;;;;;;;;;5049988;28;20715;-43
2021/04/11 06:39:21;;;;;;;7.97;7.17;;;;;;;;;;5047611;28;20614;-44
2021/04/11 06:41:52;;;;;;;7.90;7.10;;;;;;;;;;5055413;28;20630;-42
2021/04/11 06:44:40;;;;;;;8.13;6.90;;;;;;;;;;5047497;28;21269;-43
2021/04/11 06:47:18;;;;;;;8.43;6.43;;;;;;;;;;5056419;28;20708;-43
2021/04/11 06:50:06;;;;;;;7.83;6.97;;;;;;;;;;5054242;28;21125;-44
2021/04/11 06:52:49;;;;;;;6.43;5.93;;;;;;;;;;5054339;28;20615;-43
2021/04/11 06:55:21;;;;;;;8.60;7.77;;;;;;;;;;5057381;28;21021;-43
2021/04/11 06:57:55;;;;;;;7.77;6.97;;;;;;;;;;5051858;28;20607;-42
2021/04/11 07:00:39;;;;;;;8.30;6.50;;;;;;;;;;5048398;28;20605;-43
2021/04/11 07:03:23;;;;;;;7.47;6.70;;;;;;;;;;5053302;28;20607;-43
2021/04/11 07:05:57;;;;;;;7.37;6.60;;;;;;;;;;5055809;28;20662;-44
2021/04/11 07:08:31;;;;;;;6.23;5.73;;;;;;;;;;5053812;28;20662;-43
2021/04/11 07:11:16;;;;;;;7.97;6.20;;;;;;;;;;5050565;28;21221;-43
2021/04/11 07:13:45;;;;;;;6.40;5.90;;;;;;;;;;5052968;28;20745;-46
2021/04/11 07:16:28;;;;;;;7.13;5.90;;;;;;;;;;5057186;28;20601;-44
2021/04/11 07:18:59;;;;;;;6.83;6.13;;;;;;;;;;5058997;28;20616;-44
2021/04/11 07:21:43;;;;;;;6.27;5.67;;;;;;;;;;5052841;28;20693;-44
2021/04/11 07:24:31;;;;;;;6.70;6.10;;;;;;;;;;5054613;28;20596;-44
2021/04/11 07:27:08;;;;;;;5.90;5.40;;;;;;;;;;5052965;28;20678;-44
2021/04/11 07:29:51;;;;;;;6.20;5.60;;;;;;;;;;5051869;28;20601;-44
2021/04/11 07:32:19;;;;;;;7.17;5.63;;;;;;;;;;5057031;28;21393;-42
2021/04/11 07:35:03;;;;;;;5.37;4.87;;;;;;;;;;5047431;28;20615;-43
2021/04/11 07:37:28;;;;;;;5.97;5.37;;;;;;;;;;5047814;28;20720;-42
2021/04/11 07:40:06;;;;;;;6.25;5.65;;;;;;;;;;5054744;28;20708;-43
2021/04/11 07:42:37;;;;;;;6.27;5.77;;;;;;;;;;5055188;28;20554;-43
2021/04/11 07:45:10;;;;;;;6.80;5.70;;;;;;;;;;5056709;28;20621;-42
2021/04/11 07:47:44;;;;;;;7.53;6.03;;;;;;;;;;5051476;28;20643;-43
2021/04/11 07:50:28;;;;;;;6.57;5.97;;;;;;;;;;5061168;28;20691;-43
2021/04/11 07:53:12;;;;;;;6.97;6.17;;;;;;;;;;5062994;28;20617;-42
2021/04/11 07:55:45;;;;;;;6.13;5.47;;;;;;;;;;5056801;28;20705;-43
2021/04/11 07:58:15;;;;;;;6.37;5.80;;;;;;;;;;5060813;28;21202;-42
2021/04/11 08:00:59;;;;;;;5.90;5.30;;;;;;;;;;5062486;28;20619;-43
2021/04/11 08:03:39;;;;;;;5.97;5.50;;;;;;;;;;5057310;28;20606;-43
2021/04/11 08:06:14;;;;;;;5.83;5.10;;;;;;;;;;5057447;28;20633;-41
2021/04/11 08:08:39;;;;;;;5.63;5.13;;;;;;;;;;5050170;28;21258;-43
2021/04/11 08:11:05;;;;;;;5.70;5.10;;;;;;;;;;5062230;28;20642;-42
2021/04/11 08:13:32;;;;;;;5.07;4.57;;;;;;;;;;5052655;28;20208;-43
2021/04/11 08:16:00;;;;;;;5.50;5.00;;;;;;;;;;5050206;28;20171;-43
2021/04/11 08:18:54;;;;;;;6.30;5.77;;;;;;;;;;5058346;28;20727;-42
2021/04/11 08:21:32;;;;;;;6.73;5.40;;;;;;;;;;5055704;28;20608;-42
2021/04/11 08:24:03;;;;;;;5.70;5.20;;;;;;;;;;5050502;28;20636;-44
2021/04/11 08:26:36;;;;;;;4.97;4.57;;;;;;;;;;5059064;28;20611;-43
2021/04/11 08:29:07;;;;;;;5.90;5.27;;;;;;;;;;5051079;28;21244;-43
2021/04/11 08:31:42;;;;;;;6.10;5.43;;;;;;;;;;5054287;28;20617;-43
2021/04/11 08:34:10;;;;;;;6.27;5.50;;;;;;;;;;5048424;28;21159;-43
2021/04/11 08:36:48;;;;;;;5.87;5.47;;;;;;;;;;5047761;28;20606;-43
2021/04/11 08:39:30;;;;;;;5.60;5.10;;;;;;;;;;5049359;28;20599;-43
2021/04/11 08:42:03;;;;;;;6.10;5.43;;;;;;;;;;5049216;28;20699;-44
2021/04/11 08:44:34;;;;;;;6.33;5.70;;;;;;;;;;5049515;28;20614;-43
2021/04/11 08:47:05;;;;;;;5.80;5.30;;;;;;;;;;5049627;28;20648;-43
2021/04/11 08:49:44;;;;;;;6.40;5.90;;;;;;;;;;5053770;28;20791;-43
2021/04/11 08:52:21;;;;;;;6.27;5.63;;;;;;;;;;5049497;28;20688;-43
2021/04/11 08:54:48;;;;;;;6.17;5.67;;;;;;;;;;5053314;28;21132;-43
2021/04/11 08:57:32;;;;;;;5.80;5.30;;;;;;;;;;5066460;28;20613;-43
2021/04/11 08:59:59;;;;;;;7.37;6.27;;;;;;;;;;5051955;28;20729;-43
2021/04/11 09:02:47;;;;;;;7.20;6.40;;;;;;;;;;5058760;28;20719;-43
2021/04/11 09:05:25;;;;;;;6.47;5.87;;;;;;;;;;5048480;28;20694;-43
2021/04/11 09:07:50;;;;;;;6.93;6.33;;;;;;;;;;5052598;28;20663;-43
2021/04/11 09:10:22;;;;;;;8.40;5.75;;;;;;;;;;5049157;28;20614;-43
2021/04/11 09:12:59;;;;;;;6.90;6.30;;;;;;;;;;5050548;28;20315;-43
2021/04/11 09:15:44;;;;;;;7.40;6.57;;;;;;;;;;5049904;28;20710;-44
2021/04/11 09:18:17;;;;;;;8.20;7.50;;;;;;;;;;5048693;28;20688;-43
2021/04/11 09:21:01;;;;;;;8.20;7.50;;;;;;;;;;5052127;28;20593;-43
2021/04/11 09:23:35;;;;;;;7.73;7.13;;;;;;;;;;5048490;28;20607;-43
2021/04/11 09:26:19;;;;;;;8.40;7.70;;;;;;;;;;5049957;28;20628;-44
2021/04/11 09:29:02;;;;;;;7.70;7.00;;;;;;;;;;5048465;28;20651;-44
2021/04/11 09:31:29;;;;;;;8.27;7.67;;;;;;;;;;5056148;28;20660;-43
2021/04/11 09:34:09;;;;;;;8.80;7.43;;;;;;;;;;5050131;28;20624;-43
2021/04/11 09:36:53;;;;;;;9.00;7.40;;;;;;;;;;5050616;28;21173;-43
2021/04/11 09:39:47;;;;;;;7.60;6.90;;;;;;;;;;5048265;28;21189;-44
2021/04/11 09:42:12;;;;;;;7.50;6.90;;;;;;;;;;5047306;28;20635;-43
2021/04/11 09:44:46;;;;;;;8.70;7.93;;;;;;;;;;5048225;28;20933;-46
2021/04/11 09:47:31;;;;;;;8.70;7.90;;;;;;;;;;5047324;28;20200;-44
2021/04/11 09:49:56;;;;;;;8.90;8.10;;;;;;;;;;5048855;28;20621;-43
2021/04/11 09:52:24;;;;;;;8.18;7.40;;;;;;;;;;5046193;28;20682;-44
2021/04/11 09:55:11;;;;;;;8.40;7.60;;;;;;;;;;5053561;28;20255;-44
2021/04/11 09:57:50;;;;;;;9.57;8.73;;;;;;;;;;5047876;28;21386;-44
2021/04/11 10:00:19;;;;;;;9.47;8.50;;;;;;;;;;5055971;28;20687;-44
2021/04/11 10:02:44;;;;;;;8.50;7.57;;;;;;;;;;5052243;28;20608;-48
2021/04/11 10:05:16;;;;;;;8.67;7.80;;;;;;;;;;5062387;28;20671;-44
2021/04/11 10:07:47;;;;;;;8.43;7.73;;;;;;;;;;5053409;28;20235;-43
2021/04/11 10:10:51;;;;;;;8.60;7.80;;;;;;;;;;5047923;28;20632;-43
2021/04/11 10:13:35;;;;;;;9.17;8.27;;;;;;;;;;5048245;28;20600;-43
2021/04/11 10:16:15;;;;;;;8.40;7.57;;;;;;;;;;5049158;28;20588;-43
2021/04/11 10:18:54;;;;;;;8.27;7.07;;;;;;;;;;5050975;28;21208;-43
2021/04/11 10:21:33;;;;;;;8.03;7.10;;;;;;;;;;5064619;28;20599;-44
2021/04/11 10:24:17;;;;;;;9.90;7.40;;;;;;;;;;5054745;28;21265;-43
2021/04/11 10:26:51;;;;;;;7.77;7.03;;;;;;;;;;5048132;28;20952;-41
2021/04/11 10:29:22;;;;;;;9.53;7.47;;;;;;;;;;5047168;28;20626;-44
2021/04/11 10:31:53;;;;;;;8.40;7.70;;;;;;;;;;5050545;28;20638;-43
2021/04/11 10:34:26;;;;;;;8.17;7.47;;;;;;;;;;5055234;28;20684;-43
2021/04/11 10:36:51;;;;;;;8.23;7.53;;;;;;;;;;5053458;28;20717;-43
2021/04/11 10:39:34;;;;;;;7.70;6.90;;;;;;;;;;5055167;28;20619;-43
2021/04/11 10:42:08;;;;;;;8.20;7.50;;;;;;;;;;5059524;28;20697;-43
2021/04/11 10:44:33;;;;;;;8.10;6.60;;;;;;;;;;5055325;28;20705;-43
2021/04/11 10:47:13;;;;;;;7.75;7.15;;;;;;;;;;5048507;28;20699;-44
2021/04/11 10:49:45;;;;;;;6.80;6.30;;;;;;;;;;5055871;28;20225;-43
2021/04/11 10:52:13;;;;;;;7.97;7.17;;;;;;;;;;5052962;28;20609;-42
2021/04/11 10:55:01;;;;;;;7.70;6.70;;;;;;;;;;5062133;28;20700;-42
2021/04/11 10:57:27;;;;;;;7.00;6.20;;;;;;;;;;5065621;28;21018;-43
2021/04/11 11:00:00;;;;;;;6.82;6.18;;;;;;;;;;5066235;28;21110;-43
2021/04/11 11:02:31;;;;;;;7.80;7.10;;;;;;;;;;5059677;28;20192;-43
2021/04/11 11:05:14;;;;;;;6.57;6.00;;;;;;;;;;5052707;28;21436;-44
2021/04/11 11:07:45;;;;;;;7.60;6.50;;;;;;;;;;5055917;28;20683;-43
2021/04/11 11:10:18;;;;;;;8.40;7.70;;;;;;;;;;5060544;28;20611;-43
2021/04/11 11:13:00;;;;;;;7.90;7.10;;;;;;;;;;5052712;28;20624;-44
2021/04/11 11:15:35;;;;;;;8.73;6.87;;;;;;;;;;5057247;28;21029;-43
2021/04/11 11:18:18;;;;;;;7.00;6.30;;;;;;;;;;5058821;28;21206;-42
2021/04/11 11:21:02;;;;;;;7.43;6.67;;;;;;;;;;5048354;28;20680;-43
2021/04/11 11:23:47;;;;;;;8.80;7.17;;;;;;;;;;5051644;28;20652;-43
2021/04/11 11:26:27;;;;;;;9.60;6.77;;;;;;;;;;5050712;28;20612;-42
2021/04/11 11:29:11;;;;;;;6.67;6.00;;;;;;;;;;5065445;28;20647;-42
2021/04/11 11:31:36;;;;;;;7.67;6.87;;;;;;;;;;5059354;28;20629;-43
2021/04/11 11:34:20;;;;;;;7.50;6.75;;;;;;;;;;5070130;28;20604;-42
2021/04/11 11:37:03;;;;;;;8.53;7.73;;;;;;;;;;5054816;28;20224;-43
2021/04/11 11:39:37;;;;;;;8.33;7.53;;;;;;;;;;5053925;28;21139;-43
2021/04/11 11:42:10;;;;;;;7.43;6.73;;;;;;;;;;5052267;28;20652;-43
2021/04/11 11:44:39;;;;;;;6.97;6.37;;;;;;;;;;5052476;28;20683;-43
2021/04/11 11:47:10;;;;;;;7.10;6.50;;;;;;;;;;5065137;28;20605;-43
2021/04/11 11:49:44;;;;;;;7.70;7.00;;;;;;;;;;5068205;28;20648;-43
2021/04/11 11:52:14;;;;;;;6.57;5.97;;;;;;;;;;5057983;28;20674;-43
2021/04/11 11:54:58;;;;;;;7.13;6.43;;;;;;;;;;5056534;28;20600;-43
2021/04/11 11:57:35;;;;;;;7.47;6.83;;;;;;;;;;5054217;28;20623;-44
2021/04/11 12:00:03;;;;;;;7.27;6.57;;;;;;;;;;5051716;28;20605;-44
2021/04/11 12:02:39;;;;;;;8.63;8.00;;;;;;;;;;5055799;28;20620;-43
2021/04/11 12:05:15;;;;;;;8.20;7.50;;;;;;;;;;5051716;28;21007;-50
2021/04/11 12:07:43;;;;;;;9.53;8.73;;;;;;;;;;5047353;28;21749;-44
2021/04/11 12:10:08;;;;;;;8.10;7.40;;;;;;;;;;5053928;28;20606;-44
2021/04/11 12:12:36;;;;;;;7.57;7.00;;;;;;;;;;5051064;28;20630;-43
2021/04/11 12:15:13;;;;;;;8.33;7.70;;;;;;;;;;5056262;28;20203;-43
2021/04/11 12:17:48;;;;;;;7.93;7.00;;;;;;;;;;5052866;28;20612;-43
2021/04/11 12:20:36;;;;;;;7.83;7.23;;;;;;;;;;5048018;28;20601;-43
2021/04/11 12:23:05;;;;;;;8.23;7.43;;;;;;;;;;5049760;28;20636;-42
2021/04/11 12:25:32;;;;;;;7.70;6.90;;;;;;;;;;5051311;28;20732;-44
2021/04/11 12:28:07;;;;;;;8.97;8.03;;;;;;;;;;5049002;28;20744;-42
2021/04/11 12:30:34;;;;;;;7.93;7.03;;;;;;;;;;5053635;28;21025;-41
2021/04/11 12:33:02;;;;;;;8.50;7.73;;;;;;;;;;5047445;28;20604;-43
2021/04/11 12:35:33;;;;;;;6.90;6.30;;;;;;;;;;5053605;28;21186;-44
2021/04/11 12:38:17;;;;;;;9.10;8.30;;;;;;;;;;5046399;28;20613;-42
2021/04/11 12:40:47;;;;;;;7.17;6.57;;;;;;;;;;5049000;28;20634;-42
2021/04/11 12:43:18;;;;;;;7.47;6.87;;;;;;;;;;5047289;28;21242;-43
2021/04/11 12:46:02;;;;;;;8.20;7.50;;;;;;;;;;5059731;28;20618;-43
2021/04/11 12:48:45;;;;;;;7.73;6.93;;;;;;;;;;5056020;28;20681;-44
2021/04/11 12:51:21;;;;;;;8.83;7.90;;;;;;;;;;5053653;28;20649;-43
2021/04/11 12:53:59;;;;;;;9.47;7.77;;;;;;;;;;5048563;28;20617;-43
2021/04/11 12:56:25;;;;;;;7.80;7.20;;;;;;;;;;5057711;28;20622;-43
2021/04/11 12:58:53;;;;;;;8.40;7.70;;;;;;;;;;5055801;28;20621;-43
2021/04/11 13:01:21;;;;;;;9.43;8.37;;;;;;;;;;5053061;28;20190;-43
2021/04/11 13:03:52;;;;;;;8.57;7.87;;;;;;;;;;5054682;28;20667;-43
2021/04/11 13:06:20;;;;;;;8.43;7.43;;;;;;;;;;5049272;28;21132;-44
2021/04/11 13:09:10;;;;;;;10.90;8.10;;;;;;;;;;5048339;28;21051;-44
2021/04/11 13:11:43;;;;;;;8.80;8.00;;;;;;;;;;5045038;28;20621;-43
2021/04/11 13:14:23;;;;;;;10.13;8.23;;;;;;;;;;5049852;28;20625;-44
2021/04/11 13:16:51;;;;;;;8.20;7.40;;;;;;;;;;5058373;28;20616;-43
2021/04/11 13:19:24;;;;;;;9.03;8.13;;;;;;;;;;5055449;28;20657;-44
2021/04/11 13:21:55;;;;;;;8.93;8.13;;;;;;;;;;5048401;28;21140;-44
2021/04/11 13:24:26;;;;;;;9.13;7.93;;;;;;;;;;5050068;28;20603;-44
2021/04/11 13:26:52;;;;;;;9.43;7.93;;;;;;;;;;5059476;28;20630;-44
2021/04/11 13:29:35;;;;;;;8.63;7.82;;;;;;;;;;5059592;28;20614;-44
2021/04/11 13:32:09;;;;;;;9.60;8.70;;;;;;;;;;5058845;28;20181;-44
2021/04/11 13:34:38;;;;;;;8.43;7.67;;;;;;;;;;5056910;28;21028;-44
2021/04/11 13:37:09;;;;;;;8.93;8.13;;;;;;;;;;5055396;28;20621;-45
2021/04/11 13:39:36;;;;;;;9.30;8.50;;;;;;;;;;5060023;28;20608;-45
2021/04/11 13:42:01;;;;;;;8.50;7.80;;;;;;;;;;5052749;28;20641;-43
2021/04/11 13:44:33;;;;;;;8.30;7.50;;;;;;;;;;5053161;28;20606;-44
2021/04/11 13:46:58;;;;;;;9.33;7.80;;;;;;;;;;5057214;28;20181;-43
2021/04/11 13:49:45;;;;;;;9.50;8.63;;;;;;;;;;5048124;28;20660;-44
2021/04/11 13:52:25;;;;;;;9.03;8.13;;;;;;;;;;5057583;28;20212;-44
2021/04/11 13:55:09;;;;;;;8.63;7.93;;;;;;;;;;5048757;28;22277;-44
2021/04/11 13:57:40;;;;;;;9.27;8.27;;;;;;;;;;5052810;28;20604;-44
2021/04/11 14:00:05;;;;;;;9.67;8.60;;;;;;;;;;5050102;28;20782;-43
2021/04/11 14:02:40;;;;;;;8.77;7.93;;;;;;;;;;5060929;28;21151;-43
2021/04/11 14:05:17;;;;;;;9.00;8.10;;;;;;;;;;5044255;28;20186;-43
2021/04/11 14:07:45;;;;;;;8.83;8.00;;;;;;;;;;5058637;28;21021;-42
2021/04/11 14:10:13;;;;;;;7.70;6.90;;;;;;;;;;5048913;28;20621;-43
2021/04/11 14:12:47;;;;;;;8.70;7.90;;;;;;;;;;5051801;28;21198;-43
2021/04/11 14:15:16;;;;;;;8.60;7.90;;;;;;;;;;5054594;28;20934;-43
2021/04/11 14:17:52;;;;;;;7.87;7.27;;;;;;;;;;5050714;28;20614;-43
2021/04/11 14:20:38;;;;;;;8.10;7.30;;;;;;;;;;5050751;28;20632;-43
2021/04/11 14:23:08;;;;;;;10.97;7.73;;;;;;;;;;5049095;28;20629;-43
2021/04/11 14:25:38;;;;;;;8.67;7.40;;;;;;;;;;5052652;28;20602;-43
2021/04/11 14:28:21;;;;;;;9.63;8.53;;;;;;;;;;5054885;28;20665;-43
2021/04/11 14:31:01;;;;;;;8.87;7.97;;;;;;;;;;5053667;28;20937;-43
2021/04/11 14:33:31;;;;;;;8.07;7.37;;;;;;;;;;5053542;28;20637;-44
2021/04/11 14:35:56;;;;;;;8.37;7.60;;;;;;;;;;5053785;28;20628;-44
2021/04/11 14:38:27;;;;;;;8.43;7.63;;;;;;;;;;5055106;28;21030;-44
2021/04/11 14:40:55;;;;;;;7.77;7.00;;;;;;;;;;5055272;28;20195;-44
2021/04/11 14:43:27;;;;;;;10.83;8.20;;;;;;;;;;5052617;28;20618;-44
2021/04/11 14:45:54;;;;;;;8.50;7.30;;;;;;;;;;5059884;28;20668;-44
2021/04/11 14:48:24;;;;;;;8.60;7.80;;;;;;;;;;5051848;28;20744;-43
2021/04/11 14:50:49;;;;;;;7.30;6.60;;;;;;;;;;5056929;28;21233;-44
2021/04/11 14:53:14;;;;;;;8.47;7.33;;;;;;;;;;5055252;28;20610;-44
2021/04/11 14:55:47;;;;;;;7.97;7.18;;;;;;;;;;5054413;28;20196;-44
2021/04/11 14:58:19;;;;;;;7.47;6.87;;;;;;;;;;5058516;28;20213;-43
2021/04/11 15:00:59;;;;;;;8.80;7.90;;;;;;;;;;5061381;28;20613;-44
2021/04/11 15:03:36;;;;;;;7.10;6.50;;;;;;;;;;5066257;28;20714;-43